Time;durP1;ratioP1;P1;durP2;ratioP2;P2;SDS_P1;SDS_P2;PMS_P1;PMS_P2;Temp;Humidity;BMP_temperature;BMP_pressure;BME280_temperature;BME280_humidity;BME280_pressure;Samples;Min_cycle;Max_cycle;Signal;HPM_P1;HPM_P2
2024/01/25 00:01:58;;;;;;;38.17;6.07;;;;;;;;;;5051659;28;20041;-67
2024/01/25 00:04:24;;;;;;;42.08;10.60;;;;;;;;;;5051601;28;20028;-67
2024/01/25 00:06:49;;;;;;;32.28;8.52;;;;;;;;;;5052560;28;20103;-67
2024/01/25 00:09:14;;;;;;;30.38;9.02;;;;;;;;;;5052220;28;20041;-67
2024/01/25 00:11:40;;;;;;;31.48;8.73;;;;;;;;;;5052125;28;20086;-66
2024/01/25 00:14:05;;;;;;;26.80;8.82;;;;;;;;;;5052002;28;20037;-67
2024/01/25 00:16:30;;;;;;;29.42;7.68;;;;;;;;;;5052059;28;20136;-67
2024/01/25 00:18:56;;;;;;;34.58;8.60;;;;;;;;;;5051465;28;20032;-67
2024/01/25 00:21:21;;;;;;;31.00;8.30;;;;;;;;;;5052036;28;20041;-67
2024/01/25 00:23:46;;;;;;;35.13;7.97;;;;;;;;;;5050542;28;20037;-67
2024/01/25 00:26:12;;;;;;;39.03;8.60;;;;;;;;;;5051785;28;20051;-67
2024/01/25 00:28:37;;;;;;;27.73;8.52;;;;;;;;;;5051683;28;20610;-67
2024/01/25 00:31:03;;;;;;;31.20;9.00;;;;;;;;;;5051246;28;20049;-67
2024/01/25 00:33:28;;;;;;;34.97;7.40;;;;;;;;;;5051219;28;20055;-67
2024/01/25 00:35:54;;;;;;;34.83;8.25;;;;;;;;;;5051731;28;20465;-66
2024/01/25 00:38:20;;;;;;;41.72;8.23;;;;;;;;;;5051531;28;20052;-67
2024/01/25 00:40:45;;;;;;;30.55;7.80;;;;;;;;;;5051699;28;20036;-68
2024/01/25 00:43:11;;;;;;;29.30;10.25;;;;;;;;;;5051254;28;20020;-68
2024/01/25 00:45:36;;;;;;;46.00;11.88;;;;;;;;;;5050726;28;20037;-67
2024/01/25 00:48:02;;;;;;;44.03;10.90;;;;;;;;;;5051434;28;20040;-66
2024/01/25 00:50:28;;;;;;;51.15;13.45;;;;;;;;;;5051041;28;20558;-67
2024/01/25 00:52:53;;;;;;;35.58;11.68;;;;;;;;;;5051387;28;20076;-67
2024/01/25 00:55:19;;;;;;;33.95;9.65;;;;;;;;;;5050520;28;20120;-67
2024/01/25 00:57:45;;;;;;;41.03;10.35;;;;;;;;;;5050853;28;20052;-67
2024/01/25 01:00:11;;;;;;;39.92;11.00;;;;;;;;;;5050798;28;20044;-66
2024/01/25 01:02:42;;;;;;;38.17;9.70;;;;;;;;;;5050919;28;20048;-69
2024/01/25 01:05:08;;;;;;;43.92;10.18;;;;;;;;;;5050688;28;20468;-66
2024/01/25 01:07:34;;;;;;;43.63;11.50;;;;;;;;;;5051063;28;20094;-67
2024/01/25 01:09:59;;;;;;;29.80;9.70;;;;;;;;;;5050596;28;20048;-67
2024/01/25 01:12:25;;;;;;;41.70;9.77;;;;;;;;;;5049892;28;20037;-66
2024/01/25 01:14:50;;;;;;;37.42;9.93;;;;;;;;;;5050517;28;20043;-66
2024/01/25 01:17:15;;;;;;;48.65;10.32;;;;;;;;;;5050873;28;20119;-67
2024/01/25 01:19:41;;;;;;;33.17;9.82;;;;;;;;;;5050365;28;20086;-67
2024/01/25 01:22:06;;;;;;;42.95;10.70;;;;;;;;;;5050907;28;20064;-67
2024/01/25 01:24:31;;;;;;;32.33;8.50;;;;;;;;;;5050752;28;20090;-67
2024/01/25 01:26:57;;;;;;;34.58;9.15;;;;;;;;;;5050176;28;20028;-67
2024/01/25 01:29:22;;;;;;;37.92;8.73;;;;;;;;;;5050507;28;20025;-67
2024/01/25 01:31:47;;;;;;;36.85;7.70;;;;;;;;;;5050253;28;20059;-68
2024/01/25 01:34:13;;;;;;;28.25;7.07;;;;;;;;;;5050094;28;20380;-67
2024/01/25 01:36:39;;;;;;;30.70;6.15;;;;;;;;;;5050583;28;20033;-66
2024/01/25 01:39:05;;;;;;;28.38;6.43;;;;;;;;;;5050474;28;20045;-67
2024/01/25 01:41:31;;;;;;;29.98;5.95;;;;;;;;;;5082601;28;20039;-67
2024/01/25 01:43:56;;;;;;;27.98;5.97;;;;;;;;;;5049838;28;20542;-68
2024/01/25 01:46:41;;;;;;;20.15;5.55;;;;;;;;;;5050722;28;20469;-67
2024/01/25 01:49:11;;;;;;;35.38;5.35;;;;;;;;;;5043227;28;20072;-66
2024/01/25 01:51:36;;;;;;;21.95;5.05;;;;;;;;;;5049928;28;20056;-67
2024/01/25 01:54:05;;;;;;;19.58;5.13;;;;;;;;;;5082652;28;20063;-67
2024/01/25 01:56:31;;;;;;;33.20;6.15;;;;;;;;;;5048726;28;20037;-67
2024/01/25 01:59:01;;;;;;;31.73;5.38;;;;;;;;;;5049710;28;20033;-67
2024/01/25 02:01:27;;;;;;;33.03;6.50;;;;;;;;;;5050573;28;20150;-68
2024/01/25 02:03:52;;;;;;;23.15;7.07;;;;;;;;;;5049736;28;20044;-68
2024/01/25 02:06:22;;;;;;;29.58;7.63;;;;;;;;;;5049952;28;20040;-66
2024/01/25 02:08:48;;;;;;;27.10;8.68;;;;;;;;;;5082359;28;20499;-67
2024/01/25 02:11:13;;;;;;;46.53;10.90;;;;;;;;;;5050234;28;20032;-67
2024/01/25 02:13:39;;;;;;;43.38;11.68;;;;;;;;;;5082003;28;20040;-67
2024/01/25 02:16:05;;;;;;;48.65;13.73;;;;;;;;;;5050184;28;20480;-68
2024/01/25 02:18:31;;;;;;;35.72;11.32;;;;;;;;;;5082217;28;20082;-67
2024/01/25 02:20:56;;;;;;;44.33;10.57;;;;;;;;;;5049589;28;20045;-68
2024/01/25 02:23:21;;;;;;;34.45;9.23;;;;;;;;;;5049953;28;20037;-67
2024/01/25 02:25:47;;;;;;;31.42;10.15;;;;;;;;;;5053102;28;20040;-67
2024/01/25 02:28:12;;;;;;;38.70;9.20;;;;;;;;;;5053391;28;20052;-68
2024/01/25 02:30:37;;;;;;;38.03;9.95;;;;;;;;;;5054103;28;20036;-67
2024/01/25 02:33:03;;;;;;;39.22;10.13;;;;;;;;;;5053758;28;20032;-67
2024/01/25 02:35:28;;;;;;;29.92;10.30;;;;;;;;;;5053612;28;20036;-67
2024/01/25 02:37:53;;;;;;;29.38;9.73;;;;;;;;;;5078116;28;20386;-67
2024/01/25 02:40:19;;;;;;;39.25;10.48;;;;;;;;;;5053045;28;20041;-66
2024/01/25 02:42:44;;;;;;;38.67;10.40;;;;;;;;;;5054120;28;20368;-67
2024/01/25 02:45:09;;;;;;;31.05;10.25;;;;;;;;;;5053295;28;20500;-67
2024/01/25 02:47:35;;;;;;;35.95;10.00;;;;;;;;;;5054063;28;20032;-67
2024/01/25 02:50:00;;;;;;;33.67;8.98;;;;;;;;;;5051880;28;20083;-67
2024/01/25 02:52:25;;;;;;;27.98;8.23;;;;;;;;;;5053779;28;20041;-66
2024/01/25 02:54:51;;;;;;;36.20;6.97;;;;;;;;;;5053409;28;20094;-67
2024/01/25 02:57:16;;;;;;;32.63;5.82;;;;;;;;;;5052338;28;20053;-67
2024/01/25 02:59:42;;;;;;;22.20;5.60;;;;;;;;;;5051452;28;20484;-67
2024/01/25 03:02:07;;;;;;;39.15;6.85;;;;;;;;;;5053214;28;20029;-66
2024/01/25 03:04:32;;;;;;;26.20;6.03;;;;;;;;;;5053144;28;20039;-67
2024/01/25 03:06:58;;;;;;;46.40;7.78;;;;;;;;;;5052911;28;20033;-68
2024/01/25 03:09:23;;;;;;;30.05;5.13;;;;;;;;;;5053210;28;20040;-67
2024/01/25 03:11:49;;;;;;;40.20;6.07;;;;;;;;;;5053204;28;20421;-67
2024/01/25 03:14:14;;;;;;;28.95;4.95;;;;;;;;;;5051718;28;20434;-67
2024/01/25 03:16:40;;;;;;;29.42;5.22;;;;;;;;;;5053326;28;20073;-68
2024/01/25 03:19:05;;;;;;;17.23;3.40;;;;;;;;;;5053070;28;20041;-66
2024/01/25 03:21:30;;;;;;;41.17;4.78;;;;;;;;;;5052876;28;20033;-66
2024/01/25 03:23:56;;;;;;;26.10;4.40;;;;;;;;;;5052844;28;20480;-67
2024/01/25 03:26:21;;;;;;;29.80;4.50;;;;;;;;;;5053352;28;20481;-68
2024/01/25 03:28:46;;;;;;;32.30;4.63;;;;;;;;;;5051786;28;20445;-68
2024/01/25 03:31:12;;;;;;;23.95;4.20;;;;;;;;;;5052987;28;20473;-67
2024/01/25 03:33:37;;;;;;;15.38;3.75;;;;;;;;;;5052778;28;20029;-68
2024/01/25 03:36:03;;;;;;;23.73;4.57;;;;;;;;;;5051924;28;20094;-67
2024/01/25 03:38:29;;;;;;;19.88;5.07;;;;;;;;;;5051849;28;20465;-67
2024/01/25 03:40:56;;;;;;;26.67;4.63;;;;;;;;;;5053006;28;20047;-67
2024/01/25 03:43:23;;;;;;;26.02;4.50;;;;;;;;;;5051056;28;20041;-67
2024/01/25 03:45:49;;;;;;;19.98;4.25;;;;;;;;;;5052677;28;20041;-67
2024/01/25 03:48:14;;;;;;;27.80;5.18;;;;;;;;;;5052691;28;20040;-67
2024/01/25 03:50:40;;;;;;;26.40;4.47;;;;;;;;;;5051872;28;20104;-66
2024/01/25 03:53:06;;;;;;;48.05;5.18;;;;;;;;;;5052283;28;20033;-66
2024/01/25 03:55:32;;;;;;;27.60;4.10;;;;;;;;;;5052142;28;20128;-68
2024/01/25 03:57:57;;;;;;;45.33;4.90;;;;;;;;;;5052737;28;20053;-67
2024/01/25 04:00:23;;;;;;;38.17;5.05;;;;;;;;;;5051867;28;20025;-68
2024/01/25 04:02:48;;;;;;;42.92;5.43;;;;;;;;;;5044420;28;20037;-67
2024/01/25 04:05:14;;;;;;;32.65;4.82;;;;;;;;;;5052124;28;20616;-68
2024/01/25 04:07:39;;;;;;;39.67;5.20;;;;;;;;;;5051793;28;20504;-67
2024/01/25 04:10:05;;;;;;;38.80;4.85;;;;;;;;;;5052057;28;20469;-67
2024/01/25 04:12:32;;;;;;;33.45;3.90;;;;;;;;;;5052213;28;20045;-67
2024/01/25 04:14:57;;;;;;;36.50;4.60;;;;;;;;;;5081813;28;20099;-67
2024/01/25 04:17:23;;;;;;;38.60;4.30;;;;;;;;;;5049723;28;20481;-68
2024/01/25 04:19:48;;;;;;;32.05;4.65;;;;;;;;;;5083972;28;20064;-67
2024/01/25 04:22:13;;;;;;;32.88;4.03;;;;;;;;;;5051907;28;20033;-69
2024/01/25 04:24:39;;;;;;;27.73;4.10;;;;;;;;;;5051785;28;20072;-67
2024/01/25 04:27:04;;;;;;;12.77;2.80;;;;;;;;;;5052147;28;20052;-67
2024/01/25 04:29:30;;;;;;;16.20;2.50;;;;;;;;;;5083512;28;20037;-68
2024/01/25 04:31:56;;;;;;;28.40;3.55;;;;;;;;;;5051832;28;20040;-68
2024/01/25 04:34:21;;;;;;;22.08;2.97;;;;;;;;;;5051419;28;20048;-67
2024/01/25 04:36:46;;;;;;;16.90;2.65;;;;;;;;;;5066989;28;20052;-67
2024/01/25 04:39:12;;;;;;;15.15;3.88;;;;;;;;;;5051501;28;20486;-66
2024/01/25 04:41:37;;;;;;;16.23;2.97;;;;;;;;;;5050571;28;20033;-67
2024/01/25 04:44:03;;;;;;;22.75;3.53;;;;;;;;;;5051133;28;20045;-68
2024/01/25 04:46:28;;;;;;;9.00;2.45;;;;;;;;;;5050382;28;20033;-67
2024/01/25 04:48:54;;;;;;;10.45;2.60;;;;;;;;;;5049594;28;20473;-67
2024/01/25 04:51:22;;;;;;;6.95;2.85;;;;;;;;;;5051424;28;20033;-67
2024/01/25 04:53:48;;;;;;;6.53;3.13;;;;;;;;;;5082224;28;20044;-67
2024/01/25 04:56:13;;;;;;;19.58;3.25;;;;;;;;;;5051402;28;20045;-67
2024/01/25 04:58:39;;;;;;;7.88;2.50;;;;;;;;;;5083659;28;20037;-67
2024/01/25 05:01:06;;;;;;;14.35;2.72;;;;;;;;;;5051003;28;20048;-67
2024/01/25 05:03:32;;;;;;;11.98;2.55;;;;;;;;;;5050875;28;20076;-67
2024/01/25 05:05:57;;;;;;;15.27;2.83;;;;;;;;;;5050946;28;20071;-67
2024/01/25 05:08:22;;;;;;;19.23;3.50;;;;;;;;;;5050309;28;20233;-68
2024/01/25 05:10:48;;;;;;;20.95;3.33;;;;;;;;;;5051254;28;20052;-67
2024/01/25 05:13:14;;;;;;;23.33;4.28;;;;;;;;;;5051078;28;20036;-67
2024/01/25 05:15:39;;;;;;;16.05;3.17;;;;;;;;;;5050670;28;20044;-67
2024/01/25 05:18:05;;;;;;;17.75;3.35;;;;;;;;;;5050747;28;20425;-68
2024/01/25 05:20:36;;;;;;;19.55;3.20;;;;;;;;;;5049231;28;20039;-66
2024/01/25 05:23:02;;;;;;;18.88;4.05;;;;;;;;;;5050711;28;20037;-67
2024/01/25 05:25:28;;;;;;;35.30;4.15;;;;;;;;;;5050324;28;20528;-67
2024/01/25 05:27:54;;;;;;;18.25;3.22;;;;;;;;;;5050496;28;20377;-67
2024/01/25 05:30:21;;;;;;;17.60;3.38;;;;;;;;;;5081930;28;20048;-67
2024/01/25 05:32:48;;;;;;;24.40;2.83;;;;;;;;;;5050808;28;20069;-67
2024/01/25 05:35:14;;;;;;;13.65;3.03;;;;;;;;;;5050432;28;20037;-66
2024/01/25 05:37:39;;;;;;;17.15;3.30;;;;;;;;;;5049042;28;20120;-66
2024/01/25 05:40:05;;;;;;;15.23;2.70;;;;;;;;;;5082724;28;20075;-67
2024/01/25 05:42:30;;;;;;;15.88;3.00;;;;;;;;;;5050423;28;20423;-67
2024/01/25 05:44:56;;;;;;;11.50;2.85;;;;;;;;;;5050147;28;20037;-67
2024/01/25 05:47:21;;;;;;;11.57;2.67;;;;;;;;;;5050329;28;20480;-67
2024/01/25 05:49:46;;;;;;;11.95;3.58;;;;;;;;;;5050105;28;20445;-67
2024/01/25 05:52:12;;;;;;;19.65;2.80;;;;;;;;;;5050357;28;20045;-66
2024/01/25 05:54:37;;;;;;;16.27;3.15;;;;;;;;;;5050064;28;20041;-67
2024/01/25 05:57:03;;;;;;;19.80;3.42;;;;;;;;;;5082356;28;20611;-67
2024/01/25 05:59:29;;;;;;;12.93;3.53;;;;;;;;;;5049635;28;20040;-67
2024/01/25 06:01:55;;;;;;;12.90;3.58;;;;;;;;;;5050019;28;20377;-66
2024/01/25 06:04:20;;;;;;;15.88;3.97;;;;;;;;;;5048991;28;20110;-67
2024/01/25 06:06:45;;;;;;;14.18;3.42;;;;;;;;;;5049828;28;20052;-67
2024/01/25 06:09:10;;;;;;;12.38;3.80;;;;;;;;;;5049366;28;20051;-67
2024/01/25 06:11:37;;;;;;;11.30;3.60;;;;;;;;;;5050298;28;20037;-66
2024/01/25 06:14:04;;;;;;;17.17;4.15;;;;;;;;;;5049926;28;20040;-68
2024/01/25 06:16:30;;;;;;;14.27;4.47;;;;;;;;;;5050132;28;20065;-67
2024/01/25 06:18:55;;;;;;;10.70;3.55;;;;;;;;;;5048411;28;20067;-66
2024/01/25 06:21:20;;;;;;;12.82;3.55;;;;;;;;;;5049983;28;20045;-67
2024/01/25 06:23:45;;;;;;;8.43;3.60;;;;;;;;;;5048372;28;20544;-67
2024/01/25 06:26:11;;;;;;;9.90;3.50;;;;;;;;;;5049896;28;20025;-67
2024/01/25 06:28:36;;;;;;;18.73;3.70;;;;;;;;;;5049704;28;20041;-66
2024/01/25 06:31:02;;;;;;;10.60;2.65;;;;;;;;;;5049664;28;20171;-68
2024/01/25 06:33:27;;;;;;;6.65;2.65;;;;;;;;;;5049812;28;20115;-67
2024/01/25 06:35:54;;;;;;;12.40;4.45;;;;;;;;;;5049896;28;20029;-68
2024/01/25 06:38:19;;;;;;;9.65;3.85;;;;;;;;;;5048361;28;20135;-67
2024/01/25 06:40:44;;;;;;;13.45;3.85;;;;;;;;;;5049870;28;20033;-67
2024/01/25 06:43:11;;;;;;;6.30;3.50;;;;;;;;;;5049988;28;20045;-67
2024/01/25 06:45:37;;;;;;;18.33;6.32;;;;;;;;;;5049476;28;20126;-67
2024/01/25 06:48:02;;;;;;;15.88;7.22;;;;;;;;;;5081801;28;20061;-67
2024/01/25 06:50:27;;;;;;;15.38;6.32;;;;;;;;;;5048093;28;20037;-67
2024/01/25 06:52:54;;;;;;;13.35;4.88;;;;;;;;;;5049844;28;20481;-67
2024/01/25 06:55:20;;;;;;;9.35;3.50;;;;;;;;;;5081491;28;20036;-68
2024/01/25 06:57:45;;;;;;;8.07;3.30;;;;;;;;;;5049764;28;20048;-67
2024/01/25 07:00:12;;;;;;;6.57;3.83;;;;;;;;;;5081967;28;20041;-67
2024/01/25 07:02:38;;;;;;;12.85;3.72;;;;;;;;;;5049600;28;20056;-66
2024/01/25 07:05:04;;;;;;;14.10;4.22;;;;;;;;;;5049196;28;20515;-67
2024/01/25 07:07:32;;;;;;;5.75;3.03;;;;;;;;;;5049738;28;20693;-67
2024/01/25 07:09:57;;;;;;;6.72;3.55;;;;;;;;;;5049150;28;20091;-67
2024/01/25 07:12:22;;;;;;;6.57;3.38;;;;;;;;;;5052139;28;20037;-68
2024/01/25 07:14:48;;;;;;;13.68;3.78;;;;;;;;;;5053439;28;20037;-67
2024/01/25 07:17:13;;;;;;;11.38;4.47;;;;;;;;;;5052827;28;20033;-66
2024/01/25 07:19:39;;;;;;;9.10;3.60;;;;;;;;;;5052829;28;20112;-68
2024/01/25 07:22:04;;;;;;;7.05;3.53;;;;;;;;;;5053048;28;20037;-68
2024/01/25 07:24:31;;;;;;;10.00;3.80;;;;;;;;;;5052779;28;20037;-67
2024/01/25 07:26:57;;;;;;;11.10;4.18;;;;;;;;;;5051925;28;20041;-68
2024/01/25 07:29:22;;;;;;;9.85;4.47;;;;;;;;;;5052277;28;20174;-67
2024/01/25 07:31:48;;;;;;;10.25;4.20;;;;;;;;;;5052419;28;20029;-68
2024/01/25 07:34:13;;;;;;;12.57;4.47;;;;;;;;;;5080890;28;20119;-67
2024/01/25 07:36:38;;;;;;;9.18;3.83;;;;;;;;;;5052798;28;20037;-69
2024/01/25 07:39:04;;;;;;;8.77;3.92;;;;;;;;;;5050690;28;20039;-68
2024/01/25 07:41:29;;;;;;;10.57;4.78;;;;;;;;;;5052901;28;20076;-68
2024/01/25 07:43:55;;;;;;;6.93;4.32;;;;;;;;;;5052770;28;20497;-68
2024/01/25 07:46:21;;;;;;;11.60;4.80;;;;;;;;;;5052551;28;20423;-66
2024/01/25 07:48:47;;;;;;;7.03;4.40;;;;;;;;;;5052577;28;20033;-68
2024/01/25 07:51:13;;;;;;;11.43;5.00;;;;;;;;;;5052692;28;20037;-67
2024/01/25 07:53:39;;;;;;;15.75;4.65;;;;;;;;;;5084732;28;20024;-68
2024/01/25 07:56:07;;;;;;;8.70;4.18;;;;;;;;;;5084653;28;20060;-68
2024/01/25 07:58:32;;;;;;;10.32;3.90;;;;;;;;;;5044342;28;20053;-67
2024/01/25 08:00:58;;;;;;;9.30;3.72;;;;;;;;;;5050332;28;20051;-67
2024/01/25 08:03:23;;;;;;;10.55;3.45;;;;;;;;;;5049866;28;20033;-67
2024/01/25 08:05:48;;;;;;;6.65;3.67;;;;;;;;;;5050510;28;20071;-68
2024/01/25 08:08:14;;;;;;;12.88;4.88;;;;;;;;;;5050048;28;20060;-67
2024/01/25 08:10:39;;;;;;;7.20;4.20;;;;;;;;;;5049540;28;20044;-67
2024/01/25 08:13:04;;;;;;;7.97;3.95;;;;;;;;;;5050439;28;20049;-67
2024/01/25 08:15:30;;;;;;;11.20;5.85;;;;;;;;;;5051422;28;20063;-67
2024/01/25 08:17:55;;;;;;;12.80;5.32;;;;;;;;;;5051688;28;20389;-67
2024/01/25 08:20:21;;;;;;;6.97;3.65;;;;;;;;;;5051228;28;20033;-68
2024/01/25 08:22:46;;;;;;;9.07;3.97;;;;;;;;;;5051221;28;20035;-67
2024/01/25 08:25:13;;;;;;;7.70;3.63;;;;;;;;;;5051763;28;20087;-67
2024/01/25 08:27:39;;;;;;;4.55;2.33;;;;;;;;;;5050327;28;20041;-67
2024/01/25 08:30:05;;;;;;;4.72;3.00;;;;;;;;;;5051906;28;20043;-67
2024/01/25 08:32:30;;;;;;;7.13;2.80;;;;;;;;;;5051296;28;20048;-67
2024/01/25 08:34:56;;;;;;;6.38;2.40;;;;;;;;;;5051659;28;20029;-67
2024/01/25 08:37:21;;;;;;;4.75;2.30;;;;;;;;;;5051700;28;20074;-67
2024/01/25 08:39:49;;;;;;;7.53;2.35;;;;;;;;;;5051656;28;20040;-67
2024/01/25 08:42:16;;;;;;;4.50;2.47;;;;;;;;;;5051320;28;20515;-67
2024/01/25 08:44:48;;;;;;;6.70;2.70;;;;;;;;;;5050241;28;20491;-67
2024/01/25 08:47:14;;;;;;;4.32;2.45;;;;;;;;;;5051451;28;20057;-67
2024/01/25 08:49:39;;;;;;;6.53;2.20;;;;;;;;;;5050105;28;20447;-66
2024/01/25 08:52:06;;;;;;;4.45;1.95;;;;;;;;;;5051537;28;20510;-67
2024/01/25 08:54:32;;;;;;;6.22;2.20;;;;;;;;;;5051619;28;20044;-68
2024/01/25 08:56:57;;;;;;;9.35;2.38;;;;;;;;;;5050932;28;20052;-67
2024/01/25 08:59:22;;;;;;;10.70;3.28;;;;;;;;;;5051561;28;20484;-67
2024/01/25 09:01:48;;;;;;;4.70;2.30;;;;;;;;;;5051366;28;20642;-68
2024/01/25 09:04:13;;;;;;;6.57;2.40;;;;;;;;;;5049049;28;20388;-67
2024/01/25 09:06:38;;;;;;;8.32;2.35;;;;;;;;;;5072546;28;20393;-67
2024/01/25 09:09:05;;;;;;;5.28;1.70;;;;;;;;;;5050186;28;20625;-68
2024/01/25 09:11:30;;;;;;;9.05;2.08;;;;;;;;;;5050383;28;20044;-68
2024/01/25 09:13:56;;;;;;;5.22;2.30;;;;;;;;;;5050911;28;20455;-67
2024/01/25 09:16:22;;;;;;;6.53;1.65;;;;;;;;;;5050417;28;20495;-67
2024/01/25 09:18:47;;;;;;;8.18;1.80;;;;;;;;;;5049284;28;20044;-66
2024/01/25 09:21:13;;;;;;;5.90;1.98;;;;;;;;;;5049686;28;20032;-67
2024/01/25 09:23:39;;;;;;;4.90;1.75;;;;;;;;;;5050537;28;20075;-66
2024/01/25 09:26:04;;;;;;;4.78;1.70;;;;;;;;;;5034775;28;20037;-67
2024/01/25 09:28:30;;;;;;;5.63;1.63;;;;;;;;;;5046435;28;20504;-68
2024/01/25 09:30:55;;;;;;;4.10;1.60;;;;;;;;;;5078674;28;20036;-67
2024/01/25 09:33:21;;;;;;;5.30;2.03;;;;;;;;;;5046464;28;20429;-67
2024/01/25 09:35:46;;;;;;;6.22;2.55;;;;;;;;;;5046021;28;20021;-68
2024/01/25 09:38:12;;;;;;;3.58;1.50;;;;;;;;;;5044976;28;20819;-68
2024/01/25 09:40:37;;;;;;;5.75;1.85;;;;;;;;;;5046111;28;20033;-66
2024/01/25 09:43:03;;;;;;;4.13;1.90;;;;;;;;;;5046498;28;20808;-67
2024/01/25 09:45:31;;;;;;;5.35;1.52;;;;;;;;;;5046199;28;20049;-66
2024/01/25 09:47:56;;;;;;;3.45;1.50;;;;;;;;;;5044721;28;20041;-67
2024/01/25 09:50:21;;;;;;;3.30;1.35;;;;;;;;;;5045791;28;20035;-67
2024/01/25 09:52:54;;;;;;;5.10;1.50;;;;;;;;;;5046327;28;20068;-67
2024/01/25 09:55:24;;;;;;;5.75;1.35;;;;;;;;;;5032746;28;20037;-66
2024/01/25 09:57:53;;;;;;;3.75;1.45;;;;;;;;;;5045353;28;20524;-71
2024/01/25 10:00:20;;;;;;;4.60;1.58;;;;;;;;;;5045260;28;20110;-68
2024/01/25 10:02:47;;;;;;;6.45;1.83;;;;;;;;;;5045117;28;20037;-69
2024/01/25 10:05:13;;;;;;;4.57;1.20;;;;;;;;;;5044527;28;20040;-69
2024/01/25 10:07:43;;;;;;;2.70;0.85;;;;;;;;;;5046180;28;20032;-68
2024/01/25 10:10:09;;;;;;;1.48;0.80;;;;;;;;;;5045713;28;20044;-69
2024/01/25 10:12:34;;;;;;;2.35;0.77;;;;;;;;;;5044657;28;20128;-67
2024/01/25 10:15:00;;;;;;;1.23;0.73;;;;;;;;;;5045058;28;20047;-68
2024/01/25 10:17:25;;;;;;;1.80;0.80;;;;;;;;;;5043179;28;20098;-67
2024/01/25 10:19:51;;;;;;;1.15;0.70;;;;;;;;;;5041481;28;20103;-69
2024/01/25 10:22:18;;;;;;;2.38;0.88;;;;;;;;;;5040294;28;20029;-68
2024/01/25 10:24:43;;;;;;;2.92;0.80;;;;;;;;;;5044936;28;20072;-68
2024/01/25 10:27:08;;;;;;;2.78;1.42;;;;;;;;;;5045244;28;20064;-67
2024/01/25 10:29:34;;;;;;;2.22;0.98;;;;;;;;;;5044074;28;20071;-68
2024/01/25 10:32:00;;;;;;;2.58;1.05;;;;;;;;;;5045281;28;20053;-67
2024/01/25 10:34:26;;;;;;;3.25;1.45;;;;;;;;;;5044924;28;20114;-69
2024/01/25 10:36:52;;;;;;;7.70;1.52;;;;;;;;;;5034547;28;20979;-68
2024/01/25 10:39:18;;;;;;;3.17;1.48;;;;;;;;;;5045281;28;20115;-67
2024/01/25 10:41:49;;;;;;;3.65;1.50;;;;;;;;;;5044169;28;20052;-68
2024/01/25 10:44:15;;;;;;;6.15;1.50;;;;;;;;;;5042838;28;20363;-70
2024/01/25 10:46:40;;;;;;;7.57;1.75;;;;;;;;;;5048054;28;20048;-68
2024/01/25 10:49:07;;;;;;;4.25;1.50;;;;;;;;;;5046935;28;20055;-68
2024/01/25 10:51:33;;;;;;;10.40;1.95;;;;;;;;;;5048838;28;20078;-67
2024/01/25 10:53:59;;;;;;;6.00;2.40;;;;;;;;;;5047796;28;20057;-68
2024/01/25 10:56:24;;;;;;;3.88;1.50;;;;;;;;;;5047864;28;20041;-69
2024/01/25 10:58:49;;;;;;;11.05;2.10;;;;;;;;;;5046635;28;20503;-68
2024/01/25 11:01:16;;;;;;;11.32;1.70;;;;;;;;;;5049392;28;20032;-68
2024/01/25 11:03:42;;;;;;;5.80;1.52;;;;;;;;;;5033886;28;20044;-69
2024/01/25 11:06:11;;;;;;;7.88;2.20;;;;;;;;;;5048183;28;20037;-67
2024/01/25 11:08:38;;;;;;;10.60;1.98;;;;;;;;;;5047444;28;20040;-69
2024/01/25 11:11:07;;;;;;;8.85;2.03;;;;;;;;;;5048881;28;20045;-68
2024/01/25 11:13:32;;;;;;;11.80;3.10;;;;;;;;;;5046781;28;20424;-68
2024/01/25 11:15:57;;;;;;;5.38;1.58;;;;;;;;;;5048267;28;20052;-68
2024/01/25 11:18:28;;;;;;;8.15;1.98;;;;;;;;;;5049040;28;20083;-68
2024/01/25 11:20:53;;;;;;;4.47;1.55;;;;;;;;;;5047591;28;20024;-68
2024/01/25 11:23:19;;;;;;;11.60;1.95;;;;;;;;;;5080487;28;20060;-68
2024/01/25 11:25:48;;;;;;;12.10;1.88;;;;;;;;;;5047275;28;20250;-67
2024/01/25 11:28:19;;;;;;;5.80;1.60;;;;;;;;;;5046948;28;20025;-69
2024/01/25 11:30:44;;;;;;;9.30;1.85;;;;;;;;;;5048388;28;20037;-68
2024/01/25 11:33:11;;;;;;;9.38;1.50;;;;;;;;;;5048012;28;20515;-67
2024/01/25 11:35:37;;;;;;;10.40;1.70;;;;;;;;;;5044984;28;20043;-70
2024/01/25 11:38:03;;;;;;;8.23;1.52;;;;;;;;;;5045945;28;20041;-68
2024/01/25 11:40:31;;;;;;;6.40;1.60;;;;;;;;;;5079977;28;20122;-68
2024/01/25 11:42:56;;;;;;;5.30;1.23;;;;;;;;;;5047850;28;20021;-68
2024/01/25 11:45:22;;;;;;;6.13;1.63;;;;;;;;;;5079008;28;20048;-68
2024/01/25 11:47:47;;;;;;;6.65;1.50;;;;;;;;;;5045760;28;20046;-68
2024/01/25 11:50:13;;;;;;;5.13;1.63;;;;;;;;;;5063193;28;20039;-68
2024/01/25 11:52:39;;;;;;;8.55;1.30;;;;;;;;;;5047746;28;20045;-68
2024/01/25 11:55:09;;;;;;;4.35;1.02;;;;;;;;;;5078519;28;20489;-69
2024/01/25 11:57:36;;;;;;;10.35;1.55;;;;;;;;;;5044908;28;20048;-69
2024/01/25 12:00:04;;;;;;;5.25;1.17;;;;;;;;;;5047126;28;20416;-68
2024/01/25 12:02:31;;;;;;;3.72;1.15;;;;;;;;;;5045060;28;20457;-70
2024/01/25 12:04:57;;;;;;;3.35;1.30;;;;;;;;;;5036618;28;20025;-71
2024/01/25 12:07:22;;;;;;;5.90;1.38;;;;;;;;;;5047009;28;20098;-69
2024/01/25 12:10:07;;;;;;;10.93;3.50;;;;;;;;;;5046218;28;20640;-68
2024/01/25 12:12:32;;;;;;;9.65;2.03;;;;;;;;;;5047214;28;20029;-69
2024/01/25 12:15:03;;;;;;;9.15;1.45;;;;;;;;;;5047676;28;20044;-70
2024/01/25 12:17:32;;;;;;;8.25;2.17;;;;;;;;;;5073212;28;20031;-68
2024/01/25 12:19:58;;;;;;;9.27;2.03;;;;;;;;;;5045815;28;20606;-68
2024/01/25 12:22:24;;;;;;;7.32;2.08;;;;;;;;;;5045965;28;20083;-69
2024/01/25 12:24:53;;;;;;;10.18;2.22;;;;;;;;;;5045133;28;20425;-68
2024/01/25 12:27:20;;;;;;;9.82;2.10;;;;;;;;;;5046775;28;20044;-67
2024/01/25 12:29:46;;;;;;;7.50;1.77;;;;;;;;;;5046486;28;20113;-69
2024/01/25 12:32:11;;;;;;;5.40;1.45;;;;;;;;;;5047372;28;20131;-67
2024/01/25 12:34:39;;;;;;;6.82;1.45;;;;;;;;;;5078361;28;20037;-68
2024/01/25 12:37:04;;;;;;;7.90;1.38;;;;;;;;;;5044183;28;20041;-69
2024/01/25 12:39:29;;;;;;;6.55;1.50;;;;;;;;;;5046332;28;20029;-68
2024/01/25 12:41:55;;;;;;;10.85;1.80;;;;;;;;;;5046915;28;20392;-68
2024/01/25 12:44:20;;;;;;;8.70;1.60;;;;;;;;;;5046321;28;20386;-68
2024/01/25 12:46:45;;;;;;;4.85;1.13;;;;;;;;;;5044998;28;20154;-68
2024/01/25 12:49:11;;;;;;;4.18;1.33;;;;;;;;;;5046063;28;20040;-68
2024/01/25 12:51:36;;;;;;;5.63;1.48;;;;;;;;;;5045920;28;20481;-68
2024/01/25 12:54:01;;;;;;;7.70;2.15;;;;;;;;;;5036219;28;20039;-69
2024/01/25 12:56:27;;;;;;;11.02;1.80;;;;;;;;;;5046162;28;20053;-68
2024/01/25 12:58:52;;;;;;;6.20;1.70;;;;;;;;;;5046261;28;20083;-68
2024/01/25 13:01:17;;;;;;;8.75;1.35;;;;;;;;;;5045977;28;20090;-67
2024/01/25 13:03:46;;;;;;;5.47;1.40;;;;;;;;;;5045830;28;20041;-68
2024/01/25 13:06:11;;;;;;;6.35;1.48;;;;;;;;;;5042842;28;20063;-69
2024/01/25 13:08:37;;;;;;;11.35;1.80;;;;;;;;;;5036022;28;20685;-68
2024/01/25 13:11:02;;;;;;;6.35;1.50;;;;;;;;;;5044114;28;20599;-70
2024/01/25 13:13:28;;;;;;;5.53;1.40;;;;;;;;;;5046020;28;20041;-68
2024/01/25 13:15:53;;;;;;;5.85;1.27;;;;;;;;;;5045310;28;20116;-69
2024/01/25 13:18:18;;;;;;;6.57;1.45;;;;;;;;;;5046440;28;20157;-68
2024/01/25 13:20:44;;;;;;;5.38;1.33;;;;;;;;;;5046090;28;20041;-68
2024/01/25 13:23:09;;;;;;;3.58;1.10;;;;;;;;;;5043204;28;20039;-69
2024/01/25 13:25:34;;;;;;;2.45;0.80;;;;;;;;;;5036658;28;20041;-68
2024/01/25 13:27:59;;;;;;;2.75;0.95;;;;;;;;;;5026125;28;20047;-68
2024/01/25 13:30:25;;;;;;;8.85;1.33;;;;;;;;;;5045225;28;20087;-69
2024/01/25 13:32:50;;;;;;;5.13;0.90;;;;;;;;;;5041932;28;20044;-68
2024/01/25 13:35:16;;;;;;;4.72;1.15;;;;;;;;;;5040043;28;20048;-70
2024/01/25 13:37:41;;;;;;;3.05;0.82;;;;;;;;;;5038209;28;20036;-69
2024/01/25 13:40:07;;;;;;;5.07;1.30;;;;;;;;;;5044344;28;20036;-68
2024/01/25 13:42:32;;;;;;;3.60;1.05;;;;;;;;;;5044710;28;20033;-69
2024/01/25 13:44:58;;;;;;;5.05;1.17;;;;;;;;;;5041561;28;20124;-69
2024/01/25 13:47:24;;;;;;;4.63;1.30;;;;;;;;;;5044964;28;20068;-69
2024/01/25 13:49:49;;;;;;;3.92;1.00;;;;;;;;;;5041164;28;20758;-69
2024/01/25 13:52:21;;;;;;;4.20;1.10;;;;;;;;;;5044268;28;20040;-70
2024/01/25 13:54:50;;;;;;;3.35;0.98;;;;;;;;;;5042511;28;20072;-69
2024/01/25 13:57:16;;;;;;;5.53;1.38;;;;;;;;;;5043315;28;20049;-69
2024/01/25 13:59:41;;;;;;;4.05;1.20;;;;;;;;;;5075815;28;20658;-70
2024/01/25 14:02:07;;;;;;;4.35;1.63;;;;;;;;;;5037248;28;20037;-69
2024/01/25 14:04:32;;;;;;;5.35;1.38;;;;;;;;;;5044787;28;20593;-68
2024/01/25 14:06:57;;;;;;;2.42;1.00;;;;;;;;;;5044375;28;20048;-68
2024/01/25 14:09:22;;;;;;;6.20;1.42;;;;;;;;;;5044543;28;20043;-69
2024/01/25 14:11:48;;;;;;;6.40;1.17;;;;;;;;;;5045583;28;20033;-69
2024/01/25 14:14:13;;;;;;;5.32;1.00;;;;;;;;;;5044820;28;20029;-68
2024/01/25 14:16:38;;;;;;;4.00;0.90;;;;;;;;;;5044369;28;20033;-68
2024/01/25 14:19:04;;;;;;;2.13;0.63;;;;;;;;;;5044780;28;20045;-69
2024/01/25 14:21:31;;;;;;;7.00;1.33;;;;;;;;;;5049227;28;20098;-69
2024/01/25 14:23:56;;;;;;;2.63;0.80;;;;;;;;;;5084274;28;20044;-69
2024/01/25 14:26:21;;;;;;;6.78;0.75;;;;;;;;;;5050983;28;20400;-68
2024/01/25 14:28:47;;;;;;;4.68;1.33;;;;;;;;;;5050719;28;20043;-70